createdAt,value
2018-04-07T00:02:16.648Z,75.60
2018-04-07T00:04:44.195Z,75.60
2018-04-07T00:07:11.749Z,75.40
2018-04-07T00:09:39.277Z,76.80
2018-04-07T00:12:07.588Z,77.00
2018-04-07T00:14:35.102Z,76.90
2018-04-07T00:17:02.626Z,77.00
2018-04-07T00:19:30.145Z,76.80
2018-04-07T00:21:58.428Z,76.60
2018-04-07T00:24:26.833Z,76.40
2018-04-07T00:26:54.352Z,76.40
2018-04-07T00:29:22.638Z,76.80
2018-04-07T00:31:51.053Z,76.50
2018-04-07T00:34:18.581Z,76.50
2018-04-07T00:36:46.873Z,76.50
2018-04-07T00:39:14.442Z,76.50
2018-04-07T00:41:41.959Z,76.40
2018-04-07T00:44:09.482Z,76.40
2018-04-07T00:46:37.023Z,76.40
2018-04-07T00:49:04.535Z,76.50
2018-04-07T00:51:32.153Z,76.60
2018-04-07T00:53:59.678Z,76.80
2018-04-07T00:56:27.960Z,77.10
2018-04-07T00:58:56.238Z,77.20
2018-04-07T01:01:24.544Z,77.40
2018-04-07T01:03:52.057Z,77.30
2018-04-07T01:06:19.579Z,77.30
2018-04-07T01:08:47.124Z,77.40
2018-04-07T01:11:14.642Z,77.70
2018-04-07T01:13:42.154Z,77.40
2018-04-07T01:16:09.683Z,77.40
2018-04-07T01:18:37.965Z,77.60
2018-04-07T01:21:05.538Z,77.60
2018-04-07T01:23:33.072Z,77.60
2018-04-07T01:26:01.364Z,77.90
2018-04-07T01:28:28.892Z,77.70
2018-04-07T01:30:56.432Z,77.70
2018-04-07T01:33:23.948Z,77.80
2018-04-07T01:35:51.468Z,77.90
2018-04-07T01:38:19.002Z,78.70
2018-04-07T01:40:46.518Z,77.90
2018-04-07T01:43:14.816Z,78.20
2018-04-07T01:45:42.342Z,78.10
2018-04-07T01:48:10.652Z,78.40
2018-04-07T01:50:38.215Z,78.30
2018-04-07T01:53:06.491Z,78.50
2018-04-07T01:55:34.016Z,78.50
2018-04-07T01:58:02.309Z,79.20
2018-04-07T02:00:30.750Z,78.40
2018-04-07T02:02:58.276Z,78.40
2018-04-07T02:05:25.797Z,78.50
2018-04-07T02:07:54.088Z,78.70
2018-04-07T02:10:22.382Z,78.60
2018-04-07T02:12:49.915Z,78.60
2018-04-07T02:15:18.205Z,79.40
2018-04-07T02:17:46.506Z,79.90
2018-04-07T02:20:14.037Z,79.90
2018-04-07T02:22:42.332Z,79.80
2018-04-07T02:25:09.849Z,79.80
2018-04-07T02:27:37.377Z,80.10
2018-04-07T02:30:04.926Z,80.40
2018-04-07T02:32:32.491Z,80.30
2018-04-07T02:35:00.008Z,80.20
2018-04-07T02:37:28.321Z,80.40
2018-04-07T02:39:55.892Z,80.30
2018-04-07T02:42:23.414Z,80.40
2018-04-07T02:44:51.834Z,80.80
2018-04-07T02:47:19.341Z,80.70
2018-04-07T02:49:47.663Z,81.20
2018-04-07T02:52:15.203Z,81.20
2018-04-07T02:54:43.500Z,81.20
2018-04-07T02:57:11.015Z,81.20
2018-04-07T02:59:38.541Z,81.10
2018-04-07T03:02:06.059Z,81.90
2018-04-07T03:04:34.349Z,81.20
2018-04-07T03:07:01.926Z,81.00
2018-04-07T03:09:29.456Z,81.20
2018-04-07T03:11:57.739Z,81.10
2018-04-07T03:14:25.281Z,80.90
2018-04-07T03:16:53.590Z,81.70
2018-04-07T03:19:21.107Z,80.80
2018-04-07T03:21:48.639Z,80.90
2018-04-07T03:24:16.181Z,80.80
2018-04-07T03:26:43.697Z,80.70
2018-04-07T03:29:12.222Z,80.60
2018-04-07T03:31:39.752Z,80.60
2018-04-07T03:34:08.063Z,80.50
2018-04-07T03:36:35.602Z,80.50
2018-04-07T03:39:03.916Z,80.40
2018-04-07T03:41:31.441Z,80.40
2018-04-07T03:43:59.840Z,80.60
2018-04-07T03:46:27.353Z,80.60
2018-04-07T03:48:55.635Z,81.00
2018-04-07T03:51:23.185Z,81.00
2018-04-07T03:53:50.703Z,81.80
2018-04-07T03:56:18.223Z,81.20
2018-04-07T03:58:46.522Z,81.40
2018-04-07T04:01:14.040Z,81.40
2018-04-07T04:03:41.569Z,81.50
2018-04-07T04:06:09.089Z,82.10
2018-04-07T04:08:37.370Z,82.10
2018-04-07T04:11:05.649Z,82.10
2018-04-07T04:13:33.950Z,82.30
2018-04-07T04:16:01.511Z,82.30
2018-04-07T04:18:29.028Z,82.10
2018-04-07T04:20:57.330Z,82.50
2018-04-07T04:23:24.864Z,82.10
2018-04-07T04:25:52.365Z,82.10
2018-04-07T04:28:19.927Z,82.00
2018-04-07T04:30:47.446Z,82.10
2018-04-07T04:33:15.770Z,82.40
2018-04-07T04:35:43.306Z,82.30
2018-04-07T04:38:11.591Z,82.30
2018-04-07T04:40:39.164Z,82.30
2018-04-07T04:43:06.696Z,82.20
2018-04-07T04:45:35.014Z,82.50
2018-04-07T04:48:02.552Z,82.50
2018-04-07T04:50:30.082Z,82.60
2018-04-07T04:52:57.594Z,82.80
2018-04-07T04:55:25.118Z,83.60
2018-04-07T04:57:53.426Z,83.00
2018-04-07T05:00:20.956Z,83.00
2018-04-07T05:02:49.266Z,83.40
2018-04-07T05:05:16.817Z,83.40
2018-04-07T05:07:44.331Z,83.60
2018-04-07T05:10:11.846Z,83.60
2018-04-07T05:12:39.404Z,83.40
2018-04-07T05:15:06.988Z,83.20
2018-04-07T05:17:34.505Z,83.00
2018-04-07T05:20:02.034Z,83.10
2018-04-07T05:22:29.559Z,83.20
2018-04-07T05:24:57.074Z,83.40
2018-04-07T05:27:25.384Z,83.70
2018-04-07T05:29:52.900Z,83.70
2018-04-07T05:32:21.195Z,83.90
2018-04-07T05:34:48.745Z,83.80
2018-04-07T05:37:17.033Z,84.00
2018-04-07T05:39:45.334Z,84.10
2018-04-07T05:42:12.876Z,84.10
2018-04-07T05:44:40.405Z,84.20
2018-04-07T05:47:07.972Z,83.80
2018-04-07T05:49:35.505Z,83.90
2018-04-07T05:52:03.019Z,84.10
2018-04-07T05:54:30.546Z,83.70
2018-04-07T05:56:58.087Z,83.60
2018-04-07T05:59:25.615Z,83.70
2018-04-07T06:01:53.125Z,83.40
2018-04-07T06:04:20.743Z,83.20
2018-04-07T06:06:48.256Z,83.20
2018-04-07T06:09:15.775Z,83.00
2018-04-07T06:11:43.300Z,83.00
2018-04-07T06:14:11.586Z,82.80
2018-04-07T06:16:39.157Z,82.80
2018-04-07T06:19:06.688Z,83.10
2018-04-07T06:21:34.987Z,83.10
2018-04-07T06:24:02.511Z,82.90
2018-04-07T06:26:30.058Z,82.60
2018-04-07T06:28:57.680Z,82.90
2018-04-07T06:31:25.202Z,82.60
2018-04-07T06:33:53.535Z,82.50
2018-04-07T06:36:21.071Z,82.50
2018-04-07T06:38:48.590Z,82.40
2018-04-07T06:41:16.922Z,82.10
2018-04-07T06:43:44.442Z,82.10
2018-04-07T06:46:12.739Z,82.60
2018-04-07T06:48:40.266Z,83.40
2018-04-07T06:51:08.558Z,82.50
2018-04-07T06:53:36.878Z,81.60
2018-04-07T06:56:04.430Z,81.60
2018-04-07T06:58:31.963Z,81.80
2018-04-07T07:00:59.487Z,81.70
2018-04-07T07:03:27.038Z,81.90
2018-04-07T07:05:54.681Z,82.10
2018-04-07T07:08:22.206Z,82.50
2018-04-07T07:10:49.740Z,82.80
2018-04-07T07:13:18.036Z,82.30
2018-04-07T07:15:46.324Z,82.30
2018-04-07T07:18:13.882Z,82.30
2018-04-07T07:20:41.399Z,82.00
2018-04-07T07:23:08.925Z,81.60
2018-04-07T07:25:36.468Z,81.20
2018-04-07T07:28:03.999Z,81.30
2018-04-07T07:30:32.289Z,81.50
2018-04-07T07:33:00.594Z,80.50
2018-04-07T07:35:28.123Z,80.50
2018-04-07T07:37:56.428Z,80.60
2018-04-07T07:40:23.967Z,80.50
2018-04-07T07:42:52.372Z,80.40
2018-04-07T07:45:19.905Z,80.30
2018-04-07T07:47:48.321Z,79.60
2018-04-07T07:50:15.878Z,79.60
2018-04-07T07:52:43.409Z,80.60
2018-04-07T07:55:11.717Z,80.80
2018-04-07T07:57:39.247Z,80.80
2018-04-07T08:00:06.769Z,80.10
2018-04-07T08:02:35.063Z,79.70
2018-04-07T08:05:03.364Z,80.00
2018-04-07T08:07:30.898Z,79.80
2018-04-07T08:09:58.609Z,78.70
2018-04-07T08:12:26.141Z,79.00
2018-04-07T08:14:54.449Z,78.30
2018-04-07T08:17:21.991Z,78.20
2018-04-07T08:19:49.518Z,77.20
2018-04-07T08:22:17.111Z,78.30
2018-04-07T08:24:44.660Z,76.90
2018-04-07T08:27:12.949Z,76.10
2018-04-07T08:29:40.540Z,76.00
2018-04-07T08:32:08.088Z,76.60
2018-04-07T08:34:35.618Z,77.00
2018-04-07T08:37:03.904Z,75.30
2018-04-07T08:39:31.501Z,75.20
2018-04-07T08:41:59.058Z,75.30
2018-04-07T08:44:26.596Z,76.00
2018-04-07T08:46:54.135Z,75.00
2018-04-07T08:49:22.422Z,75.30
2018-04-07T08:51:49.942Z,75.30
2018-04-07T08:54:17.487Z,75.60
2018-04-07T08:56:45.023Z,75.00
2018-04-07T08:59:12.541Z,75.40
2018-04-07T09:01:40.831Z,74.30
2018-04-07T09:04:08.355Z,74.10
2018-04-07T09:06:35.982Z,72.00
2018-04-07T09:09:03.555Z,72.80
2018-04-07T09:11:31.097Z,72.10
2018-04-07T09:13:58.622Z,71.60
2018-04-07T09:16:26.919Z,69.40
2018-04-07T09:18:54.447Z,69.30
2018-04-07T09:21:22.738Z,70.00
2018-04-07T09:23:51.044Z,68.40
2018-04-07T09:26:18.563Z,68.40
2018-04-07T09:28:46.859Z,68.80
2018-04-07T09:31:20.035Z,68.80
2018-04-07T09:33:48.314Z,65.20
2018-04-07T09:36:20.946Z,64.40
2018-04-07T09:38:48.464Z,64.40
2018-04-07T09:41:16.054Z,63.80
2018-04-07T09:43:43.582Z,64.10
2018-04-07T09:46:11.870Z,64.10
2018-04-07T09:48:39.447Z,64.10
2018-04-07T09:51:06.978Z,63.00
2018-04-07T09:53:35.270Z,62.10
2018-04-07T09:56:02.804Z,62.10
2018-04-07T09:58:31.123Z,61.20
2018-04-07T10:01:00.585Z,60.30
2018-04-07T10:03:28.105Z,59.70
2018-04-07T10:05:55.748Z,60.40
2018-04-07T10:08:23.296Z,60.70
2018-04-07T10:10:50.912Z,60.90
2018-04-07T10:13:18.582Z,61.10
2018-04-07T10:15:46.207Z,61.70
2018-04-07T10:18:13.728Z,60.30
2018-04-07T10:20:42.015Z,60.10
2018-04-07T10:23:09.550Z,60.10
2018-04-07T10:25:37.872Z,59.80
2018-04-07T10:28:05.414Z,59.90
2018-04-07T10:30:32.936Z,59.00
2018-04-07T10:33:00.550Z,59.30
2018-04-07T10:35:28.104Z,60.70
2018-04-07T10:37:55.639Z,58.00
2018-04-07T10:40:23.942Z,57.00
2018-04-07T10:42:51.466Z,57.00
2018-04-07T10:45:18.990Z,57.20
2018-04-07T10:47:46.525Z,56.60
2018-04-07T10:50:14.062Z,56.50
2018-04-07T10:52:42.384Z,56.80
2018-04-07T10:55:09.938Z,56.80
2018-04-07T10:57:37.582Z,57.20
2018-04-07T11:00:05.579Z,56.20
2018-04-07T11:02:33.310Z,55.40
2018-04-07T11:05:04.334Z,55.40
2018-04-07T11:07:35.344Z,54.50
2018-04-07T11:10:03.084Z,54.50
2018-04-07T11:12:30.642Z,54.80
2018-04-07T11:14:58.174Z,54.40
2018-04-07T11:17:25.730Z,54.10
2018-04-07T11:19:53.250Z,52.80
2018-04-07T11:22:20.788Z,54.50
2018-04-07T11:24:48.323Z,53.30
2018-04-07T11:27:15.855Z,54.30
2018-04-07T11:29:45.805Z,54.60
2018-04-07T11:32:13.360Z,54.50
2018-04-07T11:34:40.891Z,53.20
2018-04-07T11:37:09.193Z,53.20
2018-04-07T11:39:36.733Z,53.10
2018-04-07T11:42:05.049Z,52.50
2018-04-07T11:44:32.575Z,52.50
2018-04-07T11:47:00.991Z,51.70
2018-04-07T11:49:28.515Z,51.60
2018-04-07T11:51:56.829Z,52.90
2018-04-07T11:54:24.363Z,52.90
2018-04-07T11:56:51.903Z,52.20
2018-04-07T11:59:20.217Z,52.60
2018-04-07T12:01:47.981Z,52.60
2018-04-07T12:04:15.519Z,51.00
2018-04-07T12:06:43.820Z,52.30
2018-04-07T12:09:11.365Z,52.30
2018-04-07T12:11:38.938Z,51.70
2018-04-07T12:14:06.451Z,51.70
2018-04-07T12:16:34.763Z,52.10
2018-04-07T12:19:02.670Z,51.40
2018-04-07T12:21:30.199Z,51.40
2018-04-07T12:23:57.773Z,51.10
2018-04-07T12:26:25.299Z,50.60
2018-04-07T12:28:53.590Z,51.40
2018-04-07T12:31:21.159Z,51.40
2018-04-07T12:33:48.687Z,50.00
2018-04-07T12:36:17.002Z,50.90
2018-04-07T12:38:44.532Z,50.80
2018-04-07T12:41:12.849Z,50.50
2018-04-07T12:43:40.384Z,50.50
2018-04-07T12:46:07.967Z,49.90
2018-04-07T12:48:35.484Z,51.20
2018-04-07T12:51:03.771Z,49.90
2018-04-07T12:53:32.093Z,49.50
2018-04-07T12:55:59.628Z,49.50
2018-04-07T12:58:27.143Z,49.10
2018-04-07T13:00:56.178Z,48.60
2018-04-07T13:03:23.705Z,48.50
2018-04-07T13:05:52.007Z,49.00
2018-04-07T13:08:19.538Z,49.00
2018-04-07T13:10:47.063Z,49.90
2018-04-07T13:13:14.627Z,46.50
2018-04-07T13:15:42.157Z,46.80
2018-04-07T13:18:09.709Z,47.60
2018-04-07T13:20:37.229Z,47.20
2018-04-07T13:23:04.767Z,47.40
2018-04-07T13:25:32.295Z,46.50
2018-04-07T13:27:59.810Z,47.50
2018-04-07T13:30:28.969Z,47.20
2018-04-07T13:32:56.522Z,47.20
2018-04-07T13:35:24.075Z,48.70
2018-04-07T13:37:51.615Z,47.90
2018-04-07T13:40:19.917Z,48.70
2018-04-07T13:42:47.443Z,48.60
2018-04-07T13:45:15.759Z,47.00
2018-04-07T13:47:43.310Z,47.00
2018-04-07T13:50:10.841Z,47.20
2018-04-07T13:52:39.254Z,47.20
2018-04-07T13:55:06.805Z,47.20
2018-04-07T13:57:34.390Z,47.20
2018-04-07T14:00:01.934Z,47.20
2018-04-07T14:02:29.465Z,47.00
2018-04-07T14:04:57.777Z,46.60
2018-04-07T14:07:26.567Z,46.60
2018-04-07T14:09:54.084Z,45.80
2018-04-07T14:12:22.390Z,46.30
2018-04-07T14:14:49.933Z,46.20
2018-04-07T14:17:18.219Z,46.70
2018-04-07T14:19:45.755Z,46.70
2018-04-07T14:22:14.071Z,45.90
2018-04-07T14:24:41.599Z,45.80
2018-04-07T14:27:09.891Z,46.20
2018-04-07T14:29:38.288Z,45.20
2018-04-07T14:32:06.723Z,45.20
2018-04-07T14:34:34.243Z,47.60
2018-04-07T14:37:01.795Z,46.00
2018-04-07T14:39:29.352Z,47.60
2018-04-07T14:41:56.877Z,47.70
2018-04-07T14:44:25.166Z,47.30
2018-04-07T14:46:53.462Z,46.30
2018-04-07T14:49:21.033Z,46.30
2018-04-07T14:51:48.561Z,47.60
2018-04-07T14:54:16.868Z,47.30
2018-04-07T14:56:44.485Z,47.30
2018-04-07T14:59:12.192Z,48.20
2018-04-07T15:01:39.722Z,49.00
2018-04-07T15:04:08.029Z,48.20
2018-04-07T15:06:35.568Z,48.10
2018-04-07T15:09:03.872Z,49.80
2018-04-07T15:11:31.397Z,49.80
2018-04-07T15:13:59.800Z,49.50
2018-04-07T15:16:27.334Z,49.40
2018-04-07T15:18:55.658Z,50.60
2018-04-07T15:21:23.186Z,50.50
2018-04-07T15:23:50.702Z,50.10
2018-04-07T15:26:18.235Z,50.00
2018-04-07T15:28:45.780Z,49.50
2018-04-07T15:31:13.307Z,50.00
2018-04-07T15:33:41.598Z,51.30
2018-04-07T15:36:09.898Z,50.40
2018-04-07T15:38:37.427Z,50.40
2018-04-07T15:41:05.735Z,51.40
2018-04-07T15:43:33.290Z,51.40
2018-04-07T15:46:00.808Z,51.30
2018-04-07T15:48:28.482Z,50.30
2018-04-07T15:50:55.982Z,50.60
2018-04-07T15:53:23.506Z,51.40
2018-04-07T15:55:51.824Z,50.50
2018-04-07T15:58:19.352Z,50.40
2018-04-07T16:00:46.886Z,50.90
2018-04-07T16:03:15.919Z,51.10
2018-04-07T16:05:43.454Z,51.10
2018-04-07T16:08:11.751Z,50.40
2018-04-07T16:10:39.270Z,50.40
2018-04-07T16:13:06.806Z,50.00
2018-04-07T16:15:34.331Z,50.50
2018-04-07T16:18:01.862Z,50.90
2018-04-07T16:20:30.163Z,51.30
2018-04-07T16:22:57.736Z,51.30
2018-04-07T16:25:26.013Z,51.60
2018-04-07T16:27:53.538Z,51.60
2018-04-07T16:30:21.815Z,52.50
2018-04-07T16:32:50.103Z,51.40
2018-04-07T16:35:18.460Z,51.00
2018-04-07T16:37:45.974Z,50.90
2018-04-07T16:40:13.646Z,52.40
2018-04-07T16:42:41.196Z,52.40
2018-04-07T16:45:08.768Z,52.90
2018-04-07T16:47:36.270Z,53.50
2018-04-07T16:50:04.578Z,53.60
2018-04-07T16:52:32.128Z,53.70
2018-04-07T16:55:00.425Z,53.20
2018-04-07T16:57:27.970Z,53.10
2018-04-07T16:59:56.476Z,53.00
2018-04-07T17:02:24.007Z,52.90
2018-04-07T17:04:52.422Z,54.60
2018-04-07T17:07:19.954Z,54.60
2018-04-07T17:09:48.246Z,52.80
2018-04-07T17:12:15.792Z,52.80
2018-04-07T17:14:44.105Z,53.20
2018-04-07T17:17:11.629Z,53.10
2018-04-07T17:19:39.951Z,54.10
2018-04-07T17:22:07.594Z,54.10
2018-04-07T17:24:35.156Z,54.10
2018-04-07T17:27:02.700Z,54.10
2018-04-07T17:29:30.232Z,54.00
2018-04-07T17:31:58.549Z,54.50
2018-04-07T17:34:26.095Z,54.40
2018-04-07T17:36:53.623Z,55.00
2018-04-07T17:39:21.927Z,56.50
2018-04-07T17:41:50.226Z,55.60
2018-04-07T17:44:17.798Z,55.60
2018-04-07T17:46:45.348Z,55.60
2018-04-07T17:49:12.911Z,55.80
2018-04-07T17:51:40.465Z,56.00
2018-04-07T17:54:08.009Z,56.50
2018-04-07T17:56:35.585Z,56.50
2018-04-07T17:59:03.120Z,56.70
2018-04-07T18:01:31.416Z,57.20
2018-04-07T18:03:58.966Z,57.20
2018-04-07T18:06:26.489Z,57.90
2018-04-07T18:08:54.015Z,58.20
2018-04-07T18:11:21.544Z,58.30
2018-04-07T18:13:49.123Z,59.20
2018-04-07T18:16:16.643Z,59.50
2018-04-07T18:18:44.947Z,61.10
2018-04-07T18:21:12.475Z,60.70
2018-04-07T18:23:39.997Z,61.30
2018-04-07T18:26:07.639Z,62.40
2018-04-07T18:28:35.206Z,63.40
2018-04-07T18:31:02.766Z,63.40
2018-04-07T18:33:30.343Z,63.20
2018-04-07T18:35:57.882Z,63.60
2018-04-07T18:38:25.396Z,63.40
2018-04-07T18:40:52.919Z,63.60
2018-04-07T18:43:20.445Z,63.70
2018-04-07T18:45:47.999Z,64.20
2018-04-07T18:48:16.383Z,64.00
2018-04-07T18:50:43.907Z,63.90
2018-04-07T18:53:11.450Z,63.90
2018-04-07T18:55:38.983Z,64.40
2018-04-07T18:58:06.515Z,65.00
2018-04-07T19:00:34.803Z,67.20
2018-04-07T19:03:02.344Z,67.20
2018-04-07T19:05:30.629Z,68.60
2018-04-07T19:07:58.914Z,68.10
2018-04-07T19:10:26.475Z,68.10
2018-04-07T19:12:53.993Z,68.70
2018-04-07T19:15:21.541Z,69.10
2018-04-07T19:17:49.171Z,69.60
2018-04-07T19:20:16.727Z,70.20
2018-04-07T19:22:44.276Z,70.40
2018-04-07T19:25:12.573Z,71.40
2018-04-07T19:27:40.130Z,71.40
2018-04-07T19:30:07.658Z,71.90
2018-04-07T19:32:35.218Z,72.50
2018-04-07T19:35:03.508Z,72.90
2018-04-07T19:37:31.052Z,72.80
2018-04-07T19:39:59.363Z,72.80
2018-04-07T19:42:26.931Z,72.70
2018-04-07T19:44:54.458Z,73.00
2018-04-07T19:47:22.771Z,73.20
2018-04-07T19:49:50.339Z,73.10
2018-04-07T19:52:17.854Z,73.50
2018-04-07T19:54:46.175Z,73.60
2018-04-07T19:57:13.723Z,73.40
2018-04-07T19:59:41.282Z,73.90
2018-04-07T20:02:08.817Z,74.10
2018-04-07T20:04:37.117Z,74.30
2018-04-07T20:07:04.688Z,74.30
2018-04-07T20:09:32.233Z,74.30
2018-04-07T20:11:59.758Z,74.50
2018-04-07T20:14:28.050Z,74.70
2018-04-07T20:16:56.358Z,75.00
2018-04-07T20:19:23.881Z,75.00
2018-04-07T20:21:52.314Z,74.80
2018-04-07T20:24:19.854Z,74.80
2018-04-07T20:26:47.370Z,75.10
2018-04-07T20:29:14.975Z,75.60
2018-04-07T20:31:42.510Z,76.60
2018-04-07T20:34:10.805Z,75.90
2018-04-07T20:36:38.342Z,75.90
2018-04-07T20:39:06.628Z,76.10
2018-04-07T20:41:34.921Z,76.10
2018-04-07T20:44:02.989Z,76.10
2018-04-07T20:46:30.523Z,76.00
2018-04-07T20:48:58.811Z,76.10
2018-04-07T20:51:27.101Z,76.40
2018-04-07T20:53:54.643Z,76.40
2018-04-07T20:56:22.948Z,76.90
2018-04-07T20:58:50.463Z,76.90
2018-04-07T21:01:18.013Z,77.00
2018-04-07T21:03:45.539Z,76.90
2018-04-07T21:06:13.095Z,77.10
2018-04-07T21:08:40.632Z,77.10
2018-04-07T21:11:08.158Z,78.00
2018-04-07T21:13:35.771Z,78.00
2018-04-07T21:16:03.313Z,78.40
2018-04-07T21:18:30.841Z,78.50
2018-04-07T21:20:58.371Z,78.80
2018-04-07T21:23:26.009Z,79.40
2018-04-07T21:25:53.518Z,80.00
2018-04-07T21:28:21.043Z,80.40
2018-04-07T21:30:48.588Z,80.40
2018-04-07T21:33:16.099Z,80.30
2018-04-07T21:35:43.655Z,80.00
2018-04-07T21:38:11.578Z,79.80
2018-04-07T21:40:39.110Z,79.50
2018-04-07T21:43:07.399Z,79.90
2018-04-07T21:45:34.947Z,79.80
2018-04-07T21:48:03.251Z,79.80
2018-04-07T21:50:30.771Z,79.90
2018-04-07T21:52:59.070Z,79.50
2018-04-07T21:55:26.601Z,79.40
2018-04-07T21:57:54.144Z,80.10
2018-04-07T22:00:21.713Z,79.00
2018-04-07T22:02:49.247Z,78.90
2018-04-07T22:05:16.791Z,79.00
2018-04-07T22:07:44.340Z,79.00
2018-04-07T22:10:11.872Z,78.90
2018-04-07T22:12:40.161Z,78.60
2018-04-07T22:15:08.442Z,78.50
2018-04-07T22:17:36.730Z,78.40
2018-04-07T22:20:04.298Z,78.30
2018-04-07T22:22:31.828Z,78.40
2018-04-07T22:25:00.116Z,78.40
2018-04-07T22:27:28.424Z,78.40
2018-04-07T22:29:55.986Z,78.30
2018-04-07T22:32:23.550Z,78.30
2018-04-07T22:34:51.083Z,78.30
2018-04-07T22:37:18.622Z,78.40
2018-04-07T22:39:46.906Z,78.40
2018-04-07T22:42:15.188Z,78.30
2018-04-07T22:44:42.768Z,78.30
2018-04-07T22:47:10.316Z,78.30
2018-04-07T22:49:37.838Z,78.40
2018-04-07T22:52:05.376Z,79.10
2018-04-07T22:54:32.913Z,78.40
2018-04-07T22:57:00.466Z,78.30
2018-04-07T22:59:28.032Z,78.20
2018-04-07T23:01:55.554Z,78.30
2018-04-07T23:04:23.868Z,78.40
2018-04-07T23:06:51.426Z,78.40
2018-04-07T23:09:18.950Z,78.50
2018-04-07T23:11:47.262Z,78.60
2018-04-07T23:14:14.839Z,78.60
2018-04-07T23:16:42.361Z,78.60
2018-04-07T23:19:10.665Z,79.00
2018-04-07T23:21:38.212Z,78.90
2018-04-07T23:24:05.734Z,79.80
2018-04-07T23:26:33.254Z,79.20
2018-04-07T23:29:00.799Z,78.70
2018-04-07T23:31:28.360Z,79.40
2018-04-07T23:33:55.885Z,79.40
2018-04-07T23:36:24.204Z,79.30
2018-04-07T23:38:51.725Z,79.30
2018-04-07T23:41:20.034Z,79.20
2018-04-07T23:43:47.581Z,79.20
2018-04-07T23:46:15.117Z,79.30
2018-04-07T23:48:43.406Z,79.40
2018-04-07T23:51:10.960Z,79.30
2018-04-07T23:53:39.251Z,80.30
2018-04-07T23:56:06.776Z,79.30
2018-04-07T23:58:34.389Z,79.70
